sensor_id;sensor_type;location;lat;lon;timestamp;P1;durP1;ratioP1;P2;durP2;ratioP2
22103;SDS011;11218;48.886;9.426;2022-07-30T00:00:24;18.08;;;6.43;;
22103;SDS011;11218;48.886;9.426;2022-07-30T00:02:53;31.40;;;8.35;;
22103;SDS011;11218;48.886;9.426;2022-07-30T00:05:21;27.77;;;8.48;;
22103;SDS011;11218;48.886;9.426;2022-07-30T00:07:50;30.40;;;8.57;;
22103;SDS011;11218;48.886;9.426;2022-07-30T00:10:18;23.58;;;7.10;;
22103;SDS011;11218;48.886;9.426;2022-07-30T00:12:48;30.58;;;8.25;;
22103;SDS011;11218;48.886;9.426;2022-07-30T00:15:16;45.83;;;10.88;;
22103;SDS011;11218;48.886;9.426;2022-07-30T00:17:44;27.42;;;7.65;;
22103;SDS011;11218;48.886;9.426;2022-07-30T00:20:16;25.00;;;7.40;;
22103;SDS011;11218;48.886;9.426;2022-07-30T00:22:44;26.88;;;7.78;;
22103;SDS011;11218;48.886;9.426;2022-07-30T00:25:13;21.25;;;7.53;;
22103;SDS011;11218;48.886;9.426;2022-07-30T00:27:41;28.75;;;8.55;;
22103;SDS011;11218;48.886;9.426;2022-07-30T00:30:11;19.10;;;7.18;;
22103;SDS011;11218;48.886;9.426;2022-07-30T00:32:39;24.98;;;7.90;;
22103;SDS011;11218;48.886;9.426;2022-07-30T00:35:07;25.63;;;7.95;;
22103;SDS011;11218;48.886;9.426;2022-07-30T00:37:37;21.52;;;7.38;;
22103;SDS011;11218;48.886;9.426;2022-07-30T00:40:06;23.02;;;7.57;;
22103;SDS011;11218;48.886;9.426;2022-07-30T00:42:36;24.88;;;7.68;;
22103;SDS011;11218;48.886;9.426;2022-07-30T00:45:05;23.55;;;7.70;;
22103;SDS011;11218;48.886;9.426;2022-07-30T00:47:34;24.95;;;7.55;;
22103;SDS011;11218;48.886;9.426;2022-07-30T00:50:02;28.40;;;8.25;;
22103;SDS011;11218;48.886;9.426;2022-07-30T00:52:30;24.35;;;8.23;;
22103;SDS011;11218;48.886;9.426;2022-07-30T00:55:00;29.27;;;8.93;;
22103;SDS011;11218;48.886;9.426;2022-07-30T00:57:28;22.98;;;7.38;;
22103;SDS011;11218;48.886;9.426;2022-07-30T00:59:56;23.60;;;7.70;;
22103;SDS011;11218;48.886;9.426;2022-07-30T01:02:25;25.40;;;7.70;;
22103;SDS011;11218;48.886;9.426;2022-07-30T01:04:53;21.70;;;7.50;;
22103;SDS011;11218;48.886;9.426;2022-07-30T01:07:21;28.15;;;8.02;;
22103;SDS011;11218;48.886;9.426;2022-07-30T01:09:52;22.70;;;8.13;;
22103;SDS011;11218;48.886;9.426;2022-07-30T01:12:22;25.65;;;7.78;;
22103;SDS011;11218;48.886;9.426;2022-07-30T01:14:52;25.50;;;7.85;;
22103;SDS011;11218;48.886;9.426;2022-07-30T01:17:20;22.38;;;7.45;;
22103;SDS011;11218;48.886;9.426;2022-07-30T01:19:49;27.83;;;8.10;;
22103;SDS011;11218;48.886;9.426;2022-07-30T01:22:23;14.40;;;5.72;;
22103;SDS011;11218;48.886;9.426;2022-07-30T01:24:57;28.42;;;8.95;;
22103;SDS011;11218;48.886;9.426;2022-07-30T01:27:33;19.95;;;7.20;;
22103;SDS011;11218;48.886;9.426;2022-07-30T01:30:03;23.33;;;7.45;;
22103;SDS011;11218;48.886;9.426;2022-07-30T01:32:34;24.55;;;7.72;;
22103;SDS011;11218;48.886;9.426;2022-07-30T01:35:03;19.70;;;7.15;;
22103;SDS011;11218;48.886;9.426;2022-07-30T01:37:33;18.13;;;7.03;;
22103;SDS011;11218;48.886;9.426;2022-07-30T01:40:02;21.48;;;7.63;;
22103;SDS011;11218;48.886;9.426;2022-07-30T01:42:34;20.85;;;7.13;;
22103;SDS011;11218;48.886;9.426;2022-07-30T01:45:03;34.53;;;9.32;;
22103;SDS011;11218;48.886;9.426;2022-07-30T01:47:33;22.58;;;7.82;;
22103;SDS011;11218;48.886;9.426;2022-07-30T01:50:02;21.40;;;7.28;;
22103;SDS011;11218;48.886;9.426;2022-07-30T01:52:36;23.75;;;7.55;;
22103;SDS011;11218;48.886;9.426;2022-07-30T01:55:05;22.27;;;7.47;;
22103;SDS011;11218;48.886;9.426;2022-07-30T01:57:44;24.52;;;7.95;;
22103;SDS011;11218;48.886;9.426;2022-07-30T02:00:12;27.55;;;8.90;;
22103;SDS011;11218;48.886;9.426;2022-07-30T02:02:41;33.80;;;10.32;;
22103;SDS011;11218;48.886;9.426;2022-07-30T02:05:09;25.05;;;8.30;;
22103;SDS011;11218;48.886;9.426;2022-07-30T02:07:39;29.23;;;8.88;;
22103;SDS011;11218;48.886;9.426;2022-07-30T02:10:16;22.95;;;8.30;;
22103;SDS011;11218;48.886;9.426;2022-07-30T02:12:52;29.30;;;8.68;;
22103;SDS011;11218;48.886;9.426;2022-07-30T02:15:24;25.70;;;8.15;;
22103;SDS011;11218;48.886;9.426;2022-07-30T02:17:58;30.35;;;9.35;;
22103;SDS011;11218;48.886;9.426;2022-07-30T02:20:29;20.45;;;7.55;;
22103;SDS011;11218;48.886;9.426;2022-07-30T02:23:04;32.22;;;9.82;;
22103;SDS011;11218;48.886;9.426;2022-07-30T02:25:34;26.17;;;8.82;;
22103;SDS011;11218;48.886;9.426;2022-07-30T02:28:04;24.13;;;8.55;;
22103;SDS011;11218;48.886;9.426;2022-07-30T02:30:36;18.95;;;7.53;;
22103;SDS011;11218;48.886;9.426;2022-07-30T02:33:08;36.22;;;9.93;;
22103;SDS011;11218;48.886;9.426;2022-07-30T02:35:38;22.80;;;7.75;;
22103;SDS011;11218;48.886;9.426;2022-07-30T02:38:07;26.33;;;8.32;;
22103;SDS011;11218;48.886;9.426;2022-07-30T02:40:36;16.95;;;7.00;;
22103;SDS011;11218;48.886;9.426;2022-07-30T02:43:08;39.08;;;10.07;;
22103;SDS011;11218;48.886;9.426;2022-07-30T02:45:36;23.08;;;7.60;;
22103;SDS011;11218;48.886;9.426;2022-07-30T02:48:04;22.58;;;8.05;;
22103;SDS011;11218;48.886;9.426;2022-07-30T02:50:34;17.17;;;6.30;;
22103;SDS011;11218;48.886;9.426;2022-07-30T02:53:04;26.33;;;8.07;;
22103;SDS011;11218;48.886;9.426;2022-07-30T02:55:33;22.50;;;7.95;;
22103;SDS011;11218;48.886;9.426;2022-07-30T02:58:03;19.92;;;7.00;;
22103;SDS011;11218;48.886;9.426;2022-07-30T03:00:34;24.15;;;7.32;;
22103;SDS011;11218;48.886;9.426;2022-07-30T03:03:04;16.83;;;6.47;;
22103;SDS011;11218;48.886;9.426;2022-07-30T03:05:32;18.83;;;6.03;;
22103;SDS011;11218;48.886;9.426;2022-07-30T03:08:01;18.38;;;6.70;;
22103;SDS011;11218;48.886;9.426;2022-07-30T03:10:29;25.20;;;7.95;;
22103;SDS011;11218;48.886;9.426;2022-07-30T03:12:58;28.58;;;8.65;;
22103;SDS011;11218;48.886;9.426;2022-07-30T03:15:27;27.67;;;8.40;;
22103;SDS011;11218;48.886;9.426;2022-07-30T03:17:57;29.90;;;8.75;;
22103;SDS011;11218;48.886;9.426;2022-07-30T03:20:27;25.55;;;8.52;;
22103;SDS011;11218;48.886;9.426;2022-07-30T03:22:57;42.60;;;10.95;;
22103;SDS011;11218;48.886;9.426;2022-07-30T03:25:26;31.05;;;8.48;;
22103;SDS011;11218;48.886;9.426;2022-07-30T03:27:55;35.03;;;9.73;;
22103;SDS011;11218;48.886;9.426;2022-07-30T03:30:24;24.63;;;7.75;;
22103;SDS011;11218;48.886;9.426;2022-07-30T03:32:54;24.88;;;8.20;;
22103;SDS011;11218;48.886;9.426;2022-07-30T03:35:24;26.25;;;7.70;;
22103;SDS011;11218;48.886;9.426;2022-07-30T03:37:56;26.38;;;8.10;;
22103;SDS011;11218;48.886;9.426;2022-07-30T03:40:25;24.77;;;8.18;;
22103;SDS011;11218;48.886;9.426;2022-07-30T03:42:54;30.05;;;8.60;;
22103;SDS011;11218;48.886;9.426;2022-07-30T03:45:22;22.15;;;7.45;;
22103;SDS011;11218;48.886;9.426;2022-07-30T03:47:51;32.45;;;9.73;;
22103;SDS011;11218;48.886;9.426;2022-07-30T03:50:19;20.45;;;7.10;;
22103;SDS011;11218;48.886;9.426;2022-07-30T03:52:49;26.60;;;8.38;;
22103;SDS011;11218;48.886;9.426;2022-07-30T03:55:17;16.10;;;6.32;;
22103;SDS011;11218;48.886;9.426;2022-07-30T03:57:45;26.20;;;8.15;;
22103;SDS011;11218;48.886;9.426;2022-07-30T04:00:14;30.42;;;9.38;;
22103;SDS011;11218;48.886;9.426;2022-07-30T04:02:44;25.92;;;8.40;;
22103;SDS011;11218;48.886;9.426;2022-07-30T04:05:13;20.85;;;8.07;;
22103;SDS011;11218;48.886;9.426;2022-07-30T04:07:41;24.70;;;8.80;;
22103;SDS011;11218;48.886;9.426;2022-07-30T04:10:12;26.15;;;8.48;;
22103;SDS011;11218;48.886;9.426;2022-07-30T04:12:40;30.30;;;9.50;;
22103;SDS011;11218;48.886;9.426;2022-07-30T04:15:08;24.15;;;8.40;;
22103;SDS011;11218;48.886;9.426;2022-07-30T04:17:57;31.85;;;9.55;;
22103;SDS011;11218;48.886;9.426;2022-07-30T04:20:30;29.55;;;8.70;;
22103;SDS011;11218;48.886;9.426;2022-07-30T04:23:01;27.63;;;8.73;;
22103;SDS011;11218;48.886;9.426;2022-07-30T04:25:30;25.55;;;8.25;;
22103;SDS011;11218;48.886;9.426;2022-07-30T04:27:59;20.25;;;7.63;;
22103;SDS011;11218;48.886;9.426;2022-07-30T04:30:29;18.20;;;6.68;;
22103;SDS011;11218;48.886;9.426;2022-07-30T04:32:58;17.10;;;7.20;;
22103;SDS011;11218;48.886;9.426;2022-07-30T04:35:26;18.83;;;7.20;;
22103;SDS011;11218;48.886;9.426;2022-07-30T04:38:14;22.40;;;8.25;;
22103;SDS011;11218;48.886;9.426;2022-07-30T04:40:44;31.50;;;9.85;;
22103;SDS011;11218;48.886;9.426;2022-07-30T04:43:12;40.70;;;11.38;;
22103;SDS011;11218;48.886;9.426;2022-07-30T04:45:41;21.15;;;7.40;;
22103;SDS011;11218;48.886;9.426;2022-07-30T04:48:10;31.27;;;9.35;;
22103;SDS011;11218;48.886;9.426;2022-07-30T04:50:40;30.95;;;9.07;;
22103;SDS011;11218;48.886;9.426;2022-07-30T04:53:09;30.05;;;9.15;;
22103;SDS011;11218;48.886;9.426;2022-07-30T04:55:40;25.08;;;7.88;;
22103;SDS011;11218;48.886;9.426;2022-07-30T04:58:11;16.80;;;7.10;;
22103;SDS011;11218;48.886;9.426;2022-07-30T05:00:41;31.42;;;9.10;;
22103;SDS011;11218;48.886;9.426;2022-07-30T05:03:12;39.13;;;10.63;;
22103;SDS011;11218;48.886;9.426;2022-07-30T05:05:41;28.83;;;8.88;;
22103;SDS011;11218;48.886;9.426;2022-07-30T05:08:10;25.02;;;8.45;;
22103;SDS011;11218;48.886;9.426;2022-07-30T05:10:39;27.02;;;7.72;;
22103;SDS011;11218;48.886;9.426;2022-07-30T05:13:12;46.15;;;11.98;;
22103;SDS011;11218;48.886;9.426;2022-07-30T05:15:41;32.55;;;9.93;;
22103;SDS011;11218;48.886;9.426;2022-07-30T05:18:10;27.60;;;9.10;;
22103;SDS011;11218;48.886;9.426;2022-07-30T05:20:39;33.00;;;9.68;;
22103;SDS011;11218;48.886;9.426;2022-07-30T05:23:07;24.92;;;8.77;;
22103;SDS011;11218;48.886;9.426;2022-07-30T05:25:35;36.30;;;10.05;;
22103;SDS011;11218;48.886;9.426;2022-07-30T05:28:03;28.33;;;9.32;;
22103;SDS011;11218;48.886;9.426;2022-07-30T05:30:33;23.98;;;7.82;;
22103;SDS011;11218;48.886;9.426;2022-07-30T05:33:01;24.58;;;8.32;;
22103;SDS011;11218;48.886;9.426;2022-07-30T05:35:40;28.98;;;9.57;;
22103;SDS011;11218;48.886;9.426;2022-07-30T05:38:08;35.90;;;10.32;;
22103;SDS011;11218;48.886;9.426;2022-07-30T05:40:36;33.53;;;9.35;;
22103;SDS011;11218;48.886;9.426;2022-07-30T05:43:04;32.22;;;9.40;;
22103;SDS011;11218;48.886;9.426;2022-07-30T05:45:34;31.33;;;9.43;;
22103;SDS011;11218;48.886;9.426;2022-07-30T05:48:02;17.05;;;6.60;;
22103;SDS011;11218;48.886;9.426;2022-07-30T05:50:30;24.90;;;8.55;;
22103;SDS011;11218;48.886;9.426;2022-07-30T05:52:58;31.58;;;9.52;;
22103;SDS011;11218;48.886;9.426;2022-07-30T05:55:27;26.50;;;9.55;;
22103;SDS011;11218;48.886;9.426;2022-07-30T05:57:55;33.78;;;10.60;;
22103;SDS011;11218;48.886;9.426;2022-07-30T06:00:23;26.92;;;10.38;;
22103;SDS011;11218;48.886;9.426;2022-07-30T06:02:53;35.15;;;10.23;;
22103;SDS011;11218;48.886;9.426;2022-07-30T06:05:21;30.63;;;11.07;;
22103;SDS011;11218;48.886;9.426;2022-07-30T06:07:49;29.15;;;10.80;;
22103;SDS011;11218;48.886;9.426;2022-07-30T06:10:17;16.17;;;8.57;;
22103;SDS011;11218;48.886;9.426;2022-07-30T06:12:45;29.45;;;10.23;;
22103;SDS011;11218;48.886;9.426;2022-07-30T06:15:13;17.95;;;9.25;;
22103;SDS011;11218;48.886;9.426;2022-07-30T06:17:47;32.92;;;11.38;;
22103;SDS011;11218;48.886;9.426;2022-07-30T06:20:28;30.95;;;10.48;;
22103;SDS011;11218;48.886;9.426;2022-07-30T06:22:56;35.80;;;12.05;;
22103;SDS011;11218;48.886;9.426;2022-07-30T06:25:24;30.02;;;10.10;;
22103;SDS011;11218;48.886;9.426;2022-07-30T06:27:53;25.80;;;9.75;;
22103;SDS011;11218;48.886;9.426;2022-07-30T06:30:21;41.78;;;13.10;;
22103;SDS011;11218;48.886;9.426;2022-07-30T06:32:57;30.42;;;11.20;;
22103;SDS011;11218;48.886;9.426;2022-07-30T06:35:26;25.33;;;9.48;;
22103;SDS011;11218;48.886;9.426;2022-07-30T06:37:55;38.83;;;11.00;;
22103;SDS011;11218;48.886;9.426;2022-07-30T06:40:32;41.72;;;12.32;;
22103;SDS011;11218;48.886;9.426;2022-07-30T06:43:00;32.85;;;10.90;;
22103;SDS011;11218;48.886;9.426;2022-07-30T06:45:29;26.50;;;10.07;;
22103;SDS011;11218;48.886;9.426;2022-07-30T06:47:57;28.25;;;9.50;;
22103;SDS011;11218;48.886;9.426;2022-07-30T06:50:25;31.33;;;10.50;;
22103;SDS011;11218;48.886;9.426;2022-07-30T06:52:53;29.63;;;10.52;;
22103;SDS011;11218;48.886;9.426;2022-07-30T06:55:23;35.60;;;11.70;;
22103;SDS011;11218;48.886;9.426;2022-07-30T06:57:51;29.75;;;9.98;;
22103;SDS011;11218;48.886;9.426;2022-07-30T07:00:19;21.50;;;7.57;;
22103;SDS011;11218;48.886;9.426;2022-07-30T07:02:47;29.88;;;10.35;;
22103;SDS011;11218;48.886;9.426;2022-07-30T07:05:15;27.35;;;9.43;;
22103;SDS011;11218;48.886;9.426;2022-07-30T07:07:44;42.38;;;12.13;;
22103;SDS011;11218;48.886;9.426;2022-07-30T07:10:25;33.40;;;10.25;;
22103;SDS011;11218;48.886;9.426;2022-07-30T07:12:53;23.02;;;8.23;;
22103;SDS011;11218;48.886;9.426;2022-07-30T07:15:22;35.08;;;11.23;;
22103;SDS011;11218;48.886;9.426;2022-07-30T07:18:02;375.92;;;156.52;;
22103;SDS011;11218;48.886;9.426;2022-07-30T07:20:33;36.60;;;17.95;;
22103;SDS011;11218;48.886;9.426;2022-07-30T07:23:02;42.13;;;21.25;;
22103;SDS011;11218;48.886;9.426;2022-07-30T07:25:38;63.70;;;46.67;;
22103;SDS011;11218;48.886;9.426;2022-07-30T07:28:06;322.40;;;153.02;;
22103;SDS011;11218;48.886;9.426;2022-07-30T07:30:38;451.08;;;187.55;;
22103;SDS011;11218;48.886;9.426;2022-07-30T07:33:08;455.17;;;192.65;;
22103;SDS011;11218;48.886;9.426;2022-07-30T07:35:39;441.17;;;186.02;;
22103;SDS011;11218;48.886;9.426;2022-07-30T07:38:15;32.13;;;12.38;;
22103;SDS011;11218;48.886;9.426;2022-07-30T07:40:45;40.10;;;13.43;;
22103;SDS011;11218;48.886;9.426;2022-07-30T07:43:13;53.13;;;18.08;;
22103;SDS011;11218;48.886;9.426;2022-07-30T07:45:41;45.38;;;20.63;;
22103;SDS011;11218;48.886;9.426;2022-07-30T07:48:11;51.65;;;33.60;;
22103;SDS011;11218;48.886;9.426;2022-07-30T07:50:39;67.13;;;51.42;;
22103;SDS011;11218;48.886;9.426;2022-07-30T07:53:07;230.65;;;139.05;;
22103;SDS011;11218;48.886;9.426;2022-07-30T07:55:35;272.00;;;144.38;;
22103;SDS011;11218;48.886;9.426;2022-07-30T07:58:05;293.27;;;151.65;;
22103;SDS011;11218;48.886;9.426;2022-07-30T08:00:33;267.88;;;146.85;;
22103;SDS011;11218;48.886;9.426;2022-07-30T08:03:01;421.23;;;180.68;;
22103;SDS011;11218;48.886;9.426;2022-07-30T08:05:30;416.77;;;181.50;;
22103;SDS011;11218;48.886;9.426;2022-07-30T08:08:18;441.50;;;190.00;;
22103;SDS011;11218;48.886;9.426;2022-07-30T08:10:46;446.27;;;195.73;;
22103;SDS011;11218;48.886;9.426;2022-07-30T08:13:16;390.35;;;174.00;;
22103;SDS011;11218;48.886;9.426;2022-07-30T08:16:04;26.40;;;10.32;;
22103;SDS011;11218;48.886;9.426;2022-07-30T08:18:38;30.05;;;9.82;;
22103;SDS011;11218;48.886;9.426;2022-07-30T08:21:05;24.52;;;9.07;;
22103;SDS011;11218;48.886;9.426;2022-07-30T08:23:34;30.85;;;8.85;;
22103;SDS011;11218;48.886;9.426;2022-07-30T08:26:07;28.67;;;8.90;;
22103;SDS011;11218;48.886;9.426;2022-07-30T08:28:37;36.85;;;10.70;;
22103;SDS011;11218;48.886;9.426;2022-07-30T08:31:05;21.92;;;8.02;;
22103;SDS011;11218;48.886;9.426;2022-07-30T08:33:33;42.13;;;11.55;;
22103;SDS011;11218;48.886;9.426;2022-07-30T08:36:01;23.63;;;7.72;;
22103;SDS011;11218;48.886;9.426;2022-07-30T08:38:35;27.13;;;8.30;;
22103;SDS011;11218;48.886;9.426;2022-07-30T08:41:03;13.35;;;6.20;;
22103;SDS011;11218;48.886;9.426;2022-07-30T08:43:31;28.55;;;9.15;;
22103;SDS011;11218;48.886;9.426;2022-07-30T08:46:01;24.90;;;8.00;;
22103;SDS011;11218;48.886;9.426;2022-07-30T08:48:30;24.58;;;8.02;;
22103;SDS011;11218;48.886;9.426;2022-07-30T08:50:58;27.88;;;8.50;;
22103;SDS011;11218;48.886;9.426;2022-07-30T08:53:27;25.08;;;7.82;;
22103;SDS011;11218;48.886;9.426;2022-07-30T08:55:55;28.95;;;8.43;;
22103;SDS011;11218;48.886;9.426;2022-07-30T08:58:26;30.95;;;8.55;;
22103;SDS011;11218;48.886;9.426;2022-07-30T09:00:56;24.80;;;7.60;;
22103;SDS011;11218;48.886;9.426;2022-07-30T09:03:25;27.52;;;8.05;;
22103;SDS011;11218;48.886;9.426;2022-07-30T09:05:53;27.10;;;8.38;;
22103;SDS011;11218;48.886;9.426;2022-07-30T09:08:21;21.63;;;7.03;;
22103;SDS011;11218;48.886;9.426;2022-07-30T09:10:49;26.30;;;7.95;;
22103;SDS011;11218;48.886;9.426;2022-07-30T09:13:22;26.63;;;7.97;;
22103;SDS011;11218;48.886;9.426;2022-07-30T09:15:51;27.52;;;8.25;;
22103;SDS011;11218;48.886;9.426;2022-07-30T09:18:28;22.33;;;6.53;;
22103;SDS011;11218;48.886;9.426;2022-07-30T09:20:58;28.35;;;6.70;;
22103;SDS011;11218;48.886;9.426;2022-07-30T09:23:27;19.58;;;6.13;;
22103;SDS011;11218;48.886;9.426;2022-07-30T09:25:57;21.40;;;6.85;;
22103;SDS011;11218;48.886;9.426;2022-07-30T09:28:27;20.30;;;6.13;;
22103;SDS011;11218;48.886;9.426;2022-07-30T09:30:56;26.48;;;7.78;;
22103;SDS011;11218;48.886;9.426;2022-07-30T09:33:31;23.05;;;7.25;;
22103;SDS011;11218;48.886;9.426;2022-07-30T09:36:01;21.48;;;7.00;;
22103;SDS011;11218;48.886;9.426;2022-07-30T09:38:40;23.30;;;6.95;;
22103;SDS011;11218;48.886;9.426;2022-07-30T09:41:09;29.58;;;7.28;;
22103;SDS011;11218;48.886;9.426;2022-07-30T09:43:57;30.85;;;8.30;;
22103;SDS011;11218;48.886;9.426;2022-07-30T09:46:39;27.40;;;7.45;;
22103;SDS011;11218;48.886;9.426;2022-07-30T09:49:13;11.68;;;3.95;;
22103;SDS011;11218;48.886;9.426;2022-07-30T09:51:42;20.83;;;6.18;;
22103;SDS011;11218;48.886;9.426;2022-07-30T09:54:22;23.05;;;6.75;;
22103;SDS011;11218;48.886;9.426;2022-07-30T09:59:57;46.33;;;10.23;;
22103;SDS011;11218;48.886;9.426;2022-07-30T10:02:27;24.17;;;6.47;;
22103;SDS011;11218;48.886;9.426;2022-07-30T10:05:08;36.05;;;8.82;;
22103;SDS011;11218;48.886;9.426;2022-07-30T10:07:46;41.28;;;10.32;;
22103;SDS011;11218;48.886;9.426;2022-07-30T10:10:17;26.10;;;7.53;;
22103;SDS011;11218;48.886;9.426;2022-07-30T10:12:53;28.20;;;7.95;;
22103;SDS011;11218;48.886;9.426;2022-07-30T10:15:23;31.48;;;8.45;;
22103;SDS011;11218;48.886;9.426;2022-07-30T10:17:53;39.20;;;9.48;;
22103;SDS011;11218;48.886;9.426;2022-07-30T10:20:23;22.27;;;6.53;;
22103;SDS011;11218;48.886;9.426;2022-07-30T10:22:52;28.30;;;7.90;;
22103;SDS011;11218;48.886;9.426;2022-07-30T10:25:21;22.17;;;6.82;;
22103;SDS011;11218;48.886;9.426;2022-07-30T10:27:53;38.50;;;8.65;;
22103;SDS011;11218;48.886;9.426;2022-07-30T10:30:24;44.67;;;12.15;;
22103;SDS011;11218;48.886;9.426;2022-07-30T10:32:54;48.90;;;30.42;;
22103;SDS011;11218;48.886;9.426;2022-07-30T10:35:26;127.90;;;104.32;;
22103;SDS011;11218;48.886;9.426;2022-07-30T10:38:03;307.55;;;170.30;;
22103;SDS011;11218;48.886;9.426;2022-07-30T10:40:42;423.35;;;193.55;;
22103;SDS011;11218;48.886;9.426;2022-07-30T10:46:05;464.63;;;214.30;;
22103;SDS011;11218;48.886;9.426;2022-07-30T10:48:48;455.88;;;206.23;;
22103;SDS011;11218;48.886;9.426;2022-07-30T10:51:36;443.08;;;204.00;;
22103;SDS011;11218;48.886;9.426;2022-07-30T10:57:07;450.92;;;207.50;;
22103;SDS011;11218;48.886;9.426;2022-07-30T11:05:41;449.45;;;208.43;;
22103;SDS011;11218;48.886;9.426;2022-07-30T11:08:28;445.77;;;204.27;;
22103;SDS011;11218;48.886;9.426;2022-07-30T11:11:02;461.95;;;218.98;;
22103;SDS011;11218;48.886;9.426;2022-07-30T11:13:49;451.40;;;211.80;;
22103;SDS011;11218;48.886;9.426;2022-07-30T11:16:19;451.73;;;213.80;;
22103;SDS011;11218;48.886;9.426;2022-07-30T11:19:03;456.98;;;216.27;;
22103;SDS011;11218;48.886;9.426;2022-07-30T11:24:52;447.70;;;207.18;;
22103;SDS011;11218;48.886;9.426;2022-07-30T11:27:36;448.92;;;215.23;;
22103;SDS011;11218;48.886;9.426;2022-07-30T11:30:30;448.05;;;211.63;;
22103;SDS011;11218;48.886;9.426;2022-07-30T11:36:05;451.98;;;212.60;;
22103;SDS011;11218;48.886;9.426;2022-07-30T11:38:49;443.70;;;210.07;;
22103;SDS011;11218;48.886;9.426;2022-07-30T11:41:20;448.00;;;216.63;;
22103;SDS011;11218;48.886;9.426;2022-07-30T11:43:48;451.38;;;214.27;;
22103;SDS011;11218;48.886;9.426;2022-07-30T11:47:01;465.20;;;215.73;;
22103;SDS011;11218;48.886;9.426;2022-07-30T11:49:33;451.80;;;213.05;;
22103;SDS011;11218;48.886;9.426;2022-07-30T11:52:01;440.40;;;209.70;;
22103;SDS011;11218;48.886;9.426;2022-07-30T11:54:30;438.45;;;205.50;;
22103;SDS011;11218;48.886;9.426;2022-07-30T11:56:59;462.48;;;220.07;;
22103;SDS011;11218;48.886;9.426;2022-07-30T11:59:30;465.70;;;222.25;;
22103;SDS011;11218;48.886;9.426;2022-07-30T12:01:58;450.23;;;214.55;;
22103;SDS011;11218;48.886;9.426;2022-07-30T12:04:41;458.55;;;216.63;;
22103;SDS011;11218;48.886;9.426;2022-07-30T12:07:10;458.48;;;219.93;;
22103;SDS011;11218;48.886;9.426;2022-07-30T12:09:38;450.27;;;216.13;;
22103;SDS011;11218;48.886;9.426;2022-07-30T12:12:20;463.15;;;222.00;;
22103;SDS011;11218;48.886;9.426;2022-07-30T12:14:50;437.38;;;211.43;;
22103;SDS011;11218;48.886;9.426;2022-07-30T12:17:18;458.33;;;221.25;;
22103;SDS011;11218;48.886;9.426;2022-07-30T12:19:48;449.90;;;210.52;;
22103;SDS011;11218;48.886;9.426;2022-07-30T12:22:17;448.23;;;212.95;;
22103;SDS011;11218;48.886;9.426;2022-07-30T12:24:46;457.48;;;217.95;;
22103;SDS011;11218;48.886;9.426;2022-07-30T12:27:14;446.10;;;215.18;;
22103;SDS011;11218;48.886;9.426;2022-07-30T12:29:45;452.90;;;214.60;;
22103;SDS011;11218;48.886;9.426;2022-07-30T12:32:13;444.77;;;211.48;;
22103;SDS011;11218;48.886;9.426;2022-07-30T12:34:41;456.67;;;219.52;;
22103;SDS011;11218;48.886;9.426;2022-07-30T12:37:19;443.30;;;212.73;;
22103;SDS011;11218;48.886;9.426;2022-07-30T12:39:48;447.30;;;212.93;;
22103;SDS011;11218;48.886;9.426;2022-07-30T12:42:17;447.48;;;214.43;;
22103;SDS011;11218;48.886;9.426;2022-07-30T12:44:47;450.52;;;216.98;;
22103;SDS011;11218;48.886;9.426;2022-07-30T12:47:17;456.58;;;216.05;;
22103;SDS011;11218;48.886;9.426;2022-07-30T12:49:47;457.35;;;216.75;;
22103;SDS011;11218;48.886;9.426;2022-07-30T12:52:29;437.98;;;204.88;;
22103;SDS011;11218;48.886;9.426;2022-07-30T12:55:03;447.65;;;211.50;;
22103;SDS011;11218;48.886;9.426;2022-07-30T12:57:52;441.30;;;212.27;;
22103;SDS011;11218;48.886;9.426;2022-07-30T13:00:23;456.73;;;217.30;;
22103;SDS011;11218;48.886;9.426;2022-07-30T13:02:54;452.52;;;216.02;;
22103;SDS011;11218;48.886;9.426;2022-07-30T13:05:51;444.00;;;214.45;;
22103;SDS011;11218;48.886;9.426;2022-07-30T13:11:12;447.70;;;211.27;;
22103;SDS011;11218;48.886;9.426;2022-07-30T13:13:41;448.92;;;219.65;;
22103;SDS011;11218;48.886;9.426;2022-07-30T13:16:10;444.65;;;206.80;;
22103;SDS011;11218;48.886;9.426;2022-07-30T13:18:39;455.83;;;217.63;;
22103;SDS011;11218;48.886;9.426;2022-07-30T13:21:07;443.92;;;209.93;;
22103;SDS011;11218;48.886;9.426;2022-07-30T13:23:35;450.90;;;211.13;;
22103;SDS011;11218;48.886;9.426;2022-07-30T13:26:04;439.90;;;212.20;;
22103;SDS011;11218;48.886;9.426;2022-07-30T13:28:33;437.15;;;205.32;;
22103;SDS011;11218;48.886;9.426;2022-07-30T13:31:01;434.38;;;201.32;;
22103;SDS011;11218;48.886;9.426;2022-07-30T13:33:40;441.33;;;206.85;;
22103;SDS011;11218;48.886;9.426;2022-07-30T13:36:14;446.75;;;209.55;;
22103;SDS011;11218;48.886;9.426;2022-07-30T13:38:50;447.67;;;209.55;;
22103;SDS011;11218;48.886;9.426;2022-07-30T13:41:18;445.45;;;216.02;;
22103;SDS011;11218;48.886;9.426;2022-07-30T13:43:46;450.58;;;213.38;;
22103;SDS011;11218;48.886;9.426;2022-07-30T13:46:14;455.90;;;219.40;;
22103;SDS011;11218;48.886;9.426;2022-07-30T13:48:44;436.75;;;214.77;;
22103;SDS011;11218;48.886;9.426;2022-07-30T13:51:13;450.92;;;220.13;;
22103;SDS011;11218;48.886;9.426;2022-07-30T13:53:41;446.00;;;212.20;;
22103;SDS011;11218;48.886;9.426;2022-07-30T13:56:15;462.45;;;221.57;;
22103;SDS011;11218;48.886;9.426;2022-07-30T13:58:45;454.98;;;221.40;;
22103;SDS011;11218;48.886;9.426;2022-07-30T14:01:14;447.05;;;219.60;;
22103;SDS011;11218;48.886;9.426;2022-07-30T14:03:45;447.27;;;217.00;;
22103;SDS011;11218;48.886;9.426;2022-07-30T14:06:16;449.83;;;223.35;;
22103;SDS011;11218;48.886;9.426;2022-07-30T14:08:45;445.88;;;214.02;;
22103;SDS011;11218;48.886;9.426;2022-07-30T14:11:14;438.88;;;213.93;;
22103;SDS011;11218;48.886;9.426;2022-07-30T14:13:43;445.35;;;221.18;;
22103;SDS011;11218;48.886;9.426;2022-07-30T14:16:11;429.92;;;210.25;;
22103;SDS011;11218;48.886;9.426;2022-07-30T14:19:01;445.02;;;216.95;;
22103;SDS011;11218;48.886;9.426;2022-07-30T14:21:29;445.45;;;216.85;;
22103;SDS011;11218;48.886;9.426;2022-07-30T14:23:57;446.55;;;224.45;;
22103;SDS011;11218;48.886;9.426;2022-07-30T14:26:25;441.88;;;214.63;;
22103;SDS011;11218;48.886;9.426;2022-07-30T14:29:01;439.23;;;214.02;;
22103;SDS011;11218;48.886;9.426;2022-07-30T14:31:30;452.05;;;228.55;;
22103;SDS011;11218;48.886;9.426;2022-07-30T14:33:58;448.30;;;223.60;;
22103;SDS011;11218;48.886;9.426;2022-07-30T14:36:28;448.02;;;222.82;;
22103;SDS011;11218;48.886;9.426;2022-07-30T14:38:56;446.17;;;220.85;;
22103;SDS011;11218;48.886;9.426;2022-07-30T14:41:24;449.30;;;221.32;;
22103;SDS011;11218;48.886;9.426;2022-07-30T14:43:53;441.80;;;215.43;;
22103;SDS011;11218;48.886;9.426;2022-07-30T14:46:22;441.67;;;214.57;;
22103;SDS011;11218;48.886;9.426;2022-07-30T14:48:50;437.45;;;216.07;;
22103;SDS011;11218;48.886;9.426;2022-07-30T14:51:18;439.83;;;215.52;;
22103;SDS011;11218;48.886;9.426;2022-07-30T14:53:53;441.65;;;214.13;;
22103;SDS011;11218;48.886;9.426;2022-07-30T14:56:23;446.08;;;216.95;;
22103;SDS011;11218;48.886;9.426;2022-07-30T14:58:52;455.63;;;227.18;;
22103;SDS011;11218;48.886;9.426;2022-07-30T15:01:20;439.25;;;214.57;;
22103;SDS011;11218;48.886;9.426;2022-07-30T15:03:48;435.77;;;212.82;;
22103;SDS011;11218;48.886;9.426;2022-07-30T15:06:17;436.30;;;212.55;;